YBA weather

Banff Airport
Banff, Alberta, Canada

Public forecast

Using degrees Celsius for public forecast. Weather courtesy of forecast.io.

METAR (pilot weather report)

Closest report is Calgary / Springbank Airport, 44.4 nm (82.3 km) E. Retrieved 2019/05/19 15:09 UTC (42 minutes ago):

CYBW 191509Z AUTO 16013KT 9SM SCT013 SCT020 BKN031 04/01 A3005 RMK SLP213

TAF (pilot weather forecast)

Closest forecast is Calgary / Springbank Airport, 44.4 nm (82.3 km) E. Retrieved 2019/05/19 12:39 UTC (3 hours ago):

TAF CYBW 191138Z 1912/1924 14008KT P6SM FEW006 SCT060 TEMPO 1912/1915 1/2SM FG VV002 FM191500 16012KT P6SM SCT020 TEMPO 1915/1918 BKN020 FM191800 16012G22KT P6SM BKN040 RMK FCST BASED ON AUTO OBS. NXT FCST BY 191800Z